createdAt,value
2018-06-17T00:00:55.110Z,22.30
2018-06-17T00:03:23.607Z,22.30
2018-06-17T00:05:52.194Z,22.30
2018-06-17T00:08:20.683Z,22.20
2018-06-17T00:10:49.060Z,22.20
2018-06-17T00:13:17.439Z,22.20
2018-06-17T00:15:45.833Z,22.20
2018-06-17T00:18:14.298Z,22.20
2018-06-17T00:20:42.710Z,22.20
2018-06-17T00:23:11.186Z,22.20
2018-06-17T00:25:39.623Z,22.20
2018-06-17T00:28:08.068Z,22.20
2018-06-17T00:30:36.510Z,22.20
2018-06-17T00:33:04.890Z,22.10
2018-06-17T00:35:33.374Z,22.10
2018-06-17T00:38:01.736Z,22.10
2018-06-17T00:40:31.121Z,22.00
2018-06-17T00:42:59.509Z,22.00
2018-06-17T00:45:27.910Z,22.00
2018-06-17T00:47:56.258Z,22.00
2018-06-17T00:50:24.649Z,22.00
2018-06-17T00:52:52.982Z,22.00
2018-06-17T00:55:21.346Z,22.00
2018-06-17T00:57:51.715Z,21.90
2018-06-17T01:00:21.691Z,21.90
2018-06-17T01:02:50.006Z,21.90
2018-06-17T01:05:18.401Z,21.90
2018-06-17T01:07:47.098Z,21.90
2018-06-17T01:10:15.452Z,21.80
2018-06-17T01:12:43.855Z,21.90
2018-06-17T01:15:12.491Z,21.90
2018-06-17T01:17:40.913Z,21.90
2018-06-17T01:20:09.776Z,21.90
2018-06-17T01:22:38.786Z,21.90
2018-06-17T01:25:07.306Z,21.90
2018-06-17T01:27:35.757Z,21.90
2018-06-17T01:30:04.413Z,21.90
2018-06-17T01:32:32.767Z,21.80
2018-06-17T01:37:29.322Z,21.80
2018-06-17T01:39:57.690Z,21.80
2018-06-17T01:42:26.109Z,21.80
2018-06-17T01:44:54.425Z,21.80
2018-06-17T01:47:22.776Z,21.80
2018-06-17T01:49:51.157Z,21.70
2018-06-17T01:52:19.505Z,21.70
2018-06-17T01:54:47.930Z,21.80
2018-06-17T01:57:16.287Z,21.70
2018-06-17T01:59:44.681Z,21.70
2018-06-17T02:02:13.060Z,21.70
2018-06-17T02:04:46.684Z,21.70
2018-06-17T02:09:54.075Z,21.70
2018-06-17T02:12:22.409Z,21.70
2018-06-17T02:14:59.616Z,21.70
2018-06-17T02:17:28.469Z,21.70
2018-06-17T02:19:57.242Z,21.70
2018-06-17T02:22:25.570Z,21.70
2018-06-17T02:24:53.932Z,21.70
2018-06-17T02:27:22.387Z,21.70
2018-06-17T02:29:50.978Z,21.60
2018-06-17T02:32:19.361Z,21.60
2018-06-17T02:34:47.741Z,21.60
2018-06-17T02:37:16.125Z,21.60
2018-06-17T02:39:44.567Z,21.60
2018-06-17T02:42:12.967Z,21.60
2018-06-17T02:44:41.358Z,21.60
2018-06-17T02:47:15.113Z,21.60
2018-06-17T02:49:46.669Z,21.60
2018-06-17T02:53:23.351Z,21.60
2018-06-17T02:55:51.713Z,21.60
2018-06-17T02:58:20.079Z,21.60
2018-06-17T03:00:48.485Z,21.60
2018-06-17T03:03:16.842Z,21.60
2018-06-17T03:05:45.341Z,21.50
2018-06-17T03:08:13.801Z,21.50
2018-06-17T03:10:42.143Z,21.50
2018-06-17T03:13:10.581Z,21.50
2018-06-17T03:15:38.941Z,21.50
2018-06-17T03:18:07.299Z,21.50
2018-06-17T03:20:35.658Z,21.50
2018-06-17T03:23:04.022Z,21.40
2018-06-17T03:25:37.629Z,21.40
2018-06-17T03:28:11.597Z,21.50
2018-06-17T03:31:42.807Z,21.40
2018-06-17T03:34:11.357Z,21.40
2018-06-17T03:36:39.709Z,21.30
2018-06-17T03:39:08.438Z,21.30
2018-06-17T03:41:36.810Z,21.30
2018-06-17T03:44:05.330Z,21.30
2018-06-17T03:46:33.812Z,21.30
2018-06-17T03:49:02.320Z,21.30
2018-06-17T03:53:58.896Z,21.30
2018-06-17T03:56:27.373Z,21.30
2018-06-17T03:58:55.757Z,21.30
2018-06-17T04:01:24.203Z,21.30
2018-06-17T04:03:52.812Z,21.30
2018-06-17T04:06:21.206Z,21.30
2018-06-17T04:08:49.688Z,21.40
2018-06-17T04:11:18.181Z,21.40
2018-06-17T04:13:46.650Z,21.50
2018-06-17T04:16:15.135Z,21.50
2018-06-17T04:18:43.513Z,21.50
2018-06-17T04:21:11.862Z,21.50
2018-06-17T04:23:40.326Z,21.60
2018-06-17T04:26:08.741Z,21.60
2018-06-17T04:28:37.415Z,21.60
2018-06-17T04:31:06.025Z,21.60
2018-06-17T04:33:34.582Z,21.70
2018-06-17T04:36:03.080Z,21.70
2018-06-17T04:38:31.458Z,21.70
2018-06-17T04:41:00.017Z,21.70
2018-06-17T04:43:28.462Z,21.70
2018-06-17T04:48:24.878Z,21.70
2018-06-17T04:50:53.253Z,21.70
2018-06-17T04:53:21.673Z,21.70
2018-06-17T04:55:50.009Z,21.70
2018-06-17T04:58:18.377Z,21.60
2018-06-17T05:00:46.749Z,21.60
2018-06-17T05:03:15.137Z,21.50
2018-06-17T05:05:43.489Z,21.50
2018-06-17T05:08:11.882Z,21.50
2018-06-17T05:10:40.242Z,21.50
2018-06-17T05:13:08.726Z,21.50
2018-06-17T05:15:37.066Z,21.50
2018-06-17T05:18:05.735Z,21.60
2018-06-17T05:20:34.129Z,21.60
2018-06-17T05:23:02.487Z,21.50
2018-06-17T05:25:30.953Z,21.50
2018-06-17T05:27:59.301Z,21.50
2018-06-17T05:30:27.678Z,21.50
2018-06-17T05:32:56.063Z,21.50
2018-06-17T05:35:24.557Z,21.40
2018-06-17T05:37:52.934Z,21.50
2018-06-17T05:40:21.326Z,21.40
2018-06-17T05:42:49.679Z,21.40
2018-06-17T05:45:18.159Z,21.40
2018-06-17T05:47:46.497Z,21.40
2018-06-17T05:50:15.019Z,21.40
2018-06-17T05:52:43.440Z,21.40
2018-06-17T05:55:11.894Z,21.40
2018-06-17T05:57:40.266Z,21.50
2018-06-17T06:00:08.649Z,21.50
2018-06-17T06:02:37.130Z,21.50
2018-06-17T06:05:05.890Z,21.50
2018-06-17T06:07:34.421Z,21.50
2018-06-17T06:10:02.812Z,21.60
2018-06-17T06:14:59.894Z,21.50
2018-06-17T06:17:28.263Z,21.50
2018-06-17T06:19:56.625Z,21.50
2018-06-17T06:22:25.234Z,21.50
2018-06-17T06:24:54.061Z,21.50
2018-06-17T06:27:22.456Z,21.50
2018-06-17T06:29:50.853Z,21.50
2018-06-17T06:32:19.334Z,21.40
2018-06-17T06:34:47.738Z,21.40
2018-06-17T06:37:16.108Z,21.30
2018-06-17T06:39:44.469Z,21.30
2018-06-17T06:44:40.918Z,21.30
2018-06-17T06:49:37.477Z,21.40
2018-06-17T06:52:05.844Z,21.40
2018-06-17T06:57:02.339Z,21.50
2018-06-17T06:59:30.824Z,21.50
2018-06-17T07:02:10.726Z,21.50
2018-06-17T07:05:51.136Z,21.50
2018-06-17T07:08:30.676Z,21.60
2018-06-17T07:10:59.251Z,21.60
2018-06-17T07:13:27.697Z,21.60
2018-06-17T07:16:07.513Z,21.60
2018-06-17T07:18:38.387Z,21.70
2018-06-17T07:21:07.330Z,21.70
2018-06-17T07:23:35.710Z,21.70
2018-06-17T07:26:43.481Z,21.80
2018-06-17T07:29:24.589Z,21.90
2018-06-17T07:31:53.253Z,21.90
2018-06-17T07:34:21.913Z,22.00
2018-06-17T07:36:50.338Z,22.00
2018-06-17T07:40:48.193Z,22.00
2018-06-17T07:43:16.556Z,22.00
2018-06-17T07:45:45.550Z,22.00
2018-06-17T07:49:23.806Z,22.10
2018-06-17T07:52:03.666Z,22.10
2018-06-17T07:54:32.427Z,22.10
2018-06-17T07:57:02.232Z,22.10
2018-06-17T07:59:30.689Z,22.10
2018-06-17T08:02:00.392Z,22.20
2018-06-17T08:04:29.865Z,22.20
2018-06-17T08:09:26.689Z,22.30
2018-06-17T08:11:55.753Z,22.40
2018-06-17T08:14:24.879Z,22.40
2018-06-17T08:16:54.060Z,22.50
2018-06-17T08:19:23.162Z,22.50
2018-06-17T08:21:51.693Z,22.60
2018-06-17T08:24:20.061Z,22.60
2018-06-17T08:26:48.690Z,22.60
2018-06-17T08:29:17.067Z,22.70
2018-06-17T08:31:45.554Z,22.80
2018-06-17T08:34:14.054Z,22.80
2018-06-17T08:36:42.556Z,22.80
2018-06-17T08:39:13.580Z,22.90
2018-06-17T08:41:42.376Z,22.90
2018-06-17T08:44:11.937Z,22.90
2018-06-17T08:46:40.677Z,22.90
2018-06-17T08:49:09.202Z,22.90
2018-06-17T08:54:05.871Z,23.00
2018-06-17T08:56:34.599Z,23.00
2018-06-17T08:59:03.258Z,23.00
2018-06-17T09:01:32.425Z,23.00
2018-06-17T09:04:01.515Z,23.00
2018-06-17T09:06:30.197Z,23.10
2018-06-17T09:08:59.039Z,23.20
2018-06-17T09:11:27.431Z,23.20
2018-06-17T09:13:56.375Z,23.20
2018-06-17T09:16:25.445Z,23.20
2018-06-17T09:18:54.069Z,23.20
2018-06-17T09:21:22.561Z,23.20
2018-06-17T09:23:51.006Z,23.20
2018-06-17T09:26:19.466Z,23.20
2018-06-17T09:28:48.030Z,23.20
2018-06-17T09:31:16.958Z,23.30
2018-06-17T09:33:45.409Z,23.30
2018-06-17T09:36:13.825Z,23.30
2018-06-17T09:38:42.392Z,23.30
2018-06-17T09:41:10.803Z,23.20
2018-06-17T09:43:39.699Z,23.10
2018-06-17T09:46:08.773Z,23.20
2018-06-17T09:48:37.195Z,23.20
2018-06-17T09:51:05.790Z,23.20
2018-06-17T09:53:34.205Z,23.30
2018-06-17T09:56:02.727Z,23.30
2018-06-17T09:58:31.546Z,23.40
2018-06-17T10:00:59.951Z,23.40
2018-06-17T10:03:28.674Z,23.40
2018-06-17T10:05:57.163Z,23.40
2018-06-17T10:08:25.571Z,23.40
2018-06-17T10:11:08.397Z,23.50
2018-06-17T10:13:41.481Z,23.50
2018-06-17T10:16:10.314Z,23.60
2018-06-17T10:18:38.722Z,23.70
2018-06-17T10:21:08.200Z,23.70
2018-06-17T10:23:36.776Z,23.70
2018-06-17T10:26:05.236Z,23.80
2018-06-17T10:28:34.342Z,23.80
2018-06-17T10:31:04.445Z,23.90
2018-06-17T10:33:33.532Z,23.90
2018-06-17T10:36:02.548Z,24.00
2018-06-17T10:38:31.087Z,24.10
2018-06-17T10:40:59.687Z,24.10
2018-06-17T10:43:31.000Z,24.20
2018-06-17T10:45:59.407Z,24.20
2018-06-17T10:48:27.825Z,24.30
2018-06-17T10:50:56.217Z,24.30
2018-06-17T10:53:24.726Z,24.40
2018-06-17T10:55:53.248Z,24.50
2018-06-17T10:58:21.545Z,24.60
2018-06-17T11:00:49.986Z,24.60
2018-06-17T11:03:18.414Z,24.60
2018-06-17T11:05:46.826Z,24.60
2018-06-17T11:08:15.299Z,24.50
2018-06-17T11:10:43.820Z,24.60
2018-06-17T11:13:12.264Z,24.80
2018-06-17T11:15:41.369Z,24.80
2018-06-17T11:18:10.024Z,24.80
2018-06-17T11:20:38.553Z,24.80
2018-06-17T11:23:07.235Z,24.80
2018-06-17T11:25:35.667Z,24.80
2018-06-17T11:28:04.135Z,24.80
2018-06-17T11:30:33.101Z,24.80
2018-06-17T11:33:01.548Z,24.80
2018-06-17T11:35:30.032Z,24.70
2018-06-17T11:37:58.524Z,24.70
2018-06-17T11:40:27.044Z,24.80
2018-06-17T11:42:55.433Z,24.80
2018-06-17T11:45:23.950Z,24.80
2018-06-17T11:47:52.411Z,24.90
2018-06-17T11:50:20.895Z,24.90
2018-06-17T11:52:49.958Z,25.00
2018-06-17T11:55:18.403Z,25.00
2018-06-17T11:57:47.491Z,25.00
2018-06-17T12:00:16.418Z,25.00
2018-06-17T12:02:44.906Z,24.90
2018-06-17T12:05:13.398Z,24.80
2018-06-17T12:07:41.798Z,24.80
2018-06-17T12:10:10.317Z,24.90
2018-06-17T12:12:39.072Z,24.80
2018-06-17T12:15:07.562Z,24.80
2018-06-17T12:17:36.406Z,24.80
2018-06-17T12:20:04.925Z,24.80
2018-06-17T12:22:33.359Z,24.80
2018-06-17T12:25:01.927Z,24.80
2018-06-17T12:27:30.318Z,24.90
2018-06-17T12:29:59.196Z,25.00
2018-06-17T12:32:27.715Z,25.20
2018-06-17T12:34:56.121Z,25.40
2018-06-17T12:37:24.512Z,25.50
2018-06-17T12:39:52.996Z,25.40
2018-06-17T12:42:21.362Z,25.40
2018-06-17T12:44:49.743Z,25.40
2018-06-17T12:47:18.112Z,25.40
2018-06-17T12:49:46.625Z,25.30
2018-06-17T12:52:14.993Z,25.30
2018-06-17T12:54:43.690Z,25.20
2018-06-17T12:57:12.089Z,25.10
2018-06-17T12:59:40.531Z,25.00
2018-06-17T13:02:08.955Z,25.00
2018-06-17T13:04:37.418Z,25.00
2018-06-17T13:07:05.803Z,25.10
2018-06-17T13:09:34.358Z,25.20
2018-06-17T13:12:02.853Z,25.30
2018-06-17T13:14:31.285Z,25.40
2018-06-17T13:16:59.792Z,25.40
2018-06-17T13:19:28.429Z,25.50
2018-06-17T13:21:56.981Z,25.50
2018-06-17T13:24:25.535Z,25.60
2018-06-17T13:26:54.010Z,25.80
2018-06-17T13:29:22.482Z,26.10
2018-06-17T13:31:50.921Z,26.30
2018-06-17T13:36:47.626Z,26.50
2018-06-17T13:39:16.092Z,26.40
2018-06-17T13:41:44.635Z,26.30
2018-06-17T13:46:41.237Z,26.10
2018-06-17T13:49:09.725Z,26.00
2018-06-17T13:51:38.191Z,25.80
2018-06-17T13:54:06.583Z,25.70
2018-06-17T13:56:35.028Z,25.70
2018-06-17T13:59:03.654Z,25.70
2018-06-17T14:01:32.188Z,25.70
2018-06-17T14:04:00.761Z,25.80
2018-06-17T14:06:29.221Z,25.90
2018-06-17T14:08:57.667Z,25.90
2018-06-17T14:11:26.154Z,26.00
2018-06-17T14:13:54.828Z,26.30
2018-06-17T14:16:23.260Z,26.70
2018-06-17T14:18:51.726Z,27.00
2018-06-17T14:21:20.182Z,27.20
2018-06-17T14:23:48.874Z,27.20
2018-06-17T14:26:17.338Z,27.10
2018-06-17T14:28:45.909Z,26.80
2018-06-17T14:31:14.397Z,26.50
2018-06-17T14:33:42.751Z,26.20
2018-06-17T14:36:11.157Z,26.00
2018-06-17T14:38:39.845Z,25.90
2018-06-17T14:41:13.651Z,25.90
2018-06-17T14:43:47.442Z,26.00
2018-06-17T14:46:21.232Z,26.10
2018-06-17T14:48:55.051Z,26.40
2018-06-17T14:51:28.894Z,26.50
2018-06-17T14:53:57.370Z,26.60
2018-06-17T14:56:26.035Z,26.30
2018-06-17T14:58:54.595Z,26.20
2018-06-17T15:01:23.163Z,26.00
2018-06-17T15:03:51.635Z,25.90
2018-06-17T15:06:20.194Z,25.70
2018-06-17T15:08:48.741Z,25.60
2018-06-17T15:11:17.194Z,25.40
2018-06-17T15:13:45.607Z,25.30
2018-06-17T15:16:14.155Z,25.20
2018-06-17T15:18:42.747Z,25.10
2018-06-17T15:21:11.110Z,25.00
2018-06-17T15:23:39.617Z,24.90
2018-06-17T15:26:08.176Z,24.90
2018-06-17T15:28:36.698Z,24.80
2018-06-17T15:31:10.770Z,24.80
2018-06-17T15:33:44.570Z,24.70
2018-06-17T15:36:18.288Z,24.70
2018-06-17T15:38:52.120Z,24.80
2018-06-17T15:41:25.682Z,24.90
2018-06-17T15:43:55.995Z,24.90
2018-06-17T15:48:53.331Z,25.00
2018-06-17T15:51:21.743Z,25.00
2018-06-17T15:53:50.616Z,25.00
2018-06-17T15:56:19.018Z,25.00
2018-06-17T15:58:47.595Z,25.00
2018-06-17T16:01:16.019Z,25.00
2018-06-17T16:03:44.407Z,25.00
2018-06-17T16:06:12.805Z,25.00
2018-06-17T16:08:41.210Z,24.90
2018-06-17T16:11:09.649Z,24.90
2018-06-17T16:13:43.291Z,24.90
2018-06-17T16:16:17.038Z,24.80
2018-06-17T16:18:50.783Z,24.90
2018-06-17T16:21:19.275Z,24.90
2018-06-17T16:23:47.753Z,24.80
2018-06-17T16:26:16.239Z,24.90
2018-06-17T16:28:44.632Z,24.80
2018-06-17T16:31:13.045Z,24.90
2018-06-17T16:33:41.438Z,24.90
2018-06-17T16:36:09.814Z,24.80
2018-06-17T16:38:38.778Z,24.80
2018-06-17T16:41:07.283Z,24.70
2018-06-17T16:43:35.659Z,24.70
2018-06-17T16:46:04.405Z,24.70
2018-06-17T16:48:32.842Z,24.60
2018-06-17T16:51:06.651Z,24.60
2018-06-17T16:53:40.509Z,24.50
2018-06-17T16:56:14.369Z,24.50
2018-06-17T16:58:48.216Z,24.60
2018-06-17T17:01:16.657Z,24.60
2018-06-17T17:03:45.198Z,24.60
2018-06-17T17:06:13.719Z,24.60
2018-06-17T17:08:42.266Z,24.60
2018-06-17T17:11:10.662Z,24.60
2018-06-17T17:13:39.080Z,24.60
2018-06-17T17:16:07.607Z,24.70
2018-06-17T17:18:36.071Z,24.70
2018-06-17T17:21:04.791Z,24.70
2018-06-17T17:23:33.270Z,24.70
2018-06-17T17:26:01.735Z,24.60
2018-06-17T17:30:58.302Z,24.60
2018-06-17T17:33:32.047Z,24.50
2018-06-17T17:36:05.967Z,24.50
2018-06-17T17:38:39.849Z,24.40
2018-06-17T17:41:08.503Z,24.40
2018-06-17T17:43:36.949Z,24.40
2018-06-17T17:46:10.796Z,24.30
2018-06-17T17:48:39.253Z,24.20
2018-06-17T17:51:07.747Z,24.20
2018-06-17T17:53:36.439Z,24.20
2018-06-17T17:58:33.291Z,24.20
2018-06-17T18:01:01.807Z,24.10
2018-06-17T18:03:30.192Z,24.10
2018-06-17T18:05:58.611Z,24.10
2018-06-17T18:08:27.114Z,24.10
2018-06-17T18:10:55.650Z,24.10
2018-06-17T18:13:24.443Z,24.10
2018-06-17T18:15:53.004Z,24.10
2018-06-17T18:18:21.632Z,24.10
2018-06-17T18:20:50.081Z,24.10
2018-06-17T18:23:18.711Z,24.10
2018-06-17T18:25:52.462Z,24.10
2018-06-17T18:28:26.216Z,24.10
2018-06-17T18:30:56.567Z,24.10
2018-06-17T18:33:30.681Z,24.10
2018-06-17T18:36:04.513Z,24.10
2018-06-17T18:38:33.053Z,24.00
2018-06-17T18:41:01.489Z,24.00
2018-06-17T18:43:29.955Z,24.00
2018-06-17T18:45:58.453Z,23.90
2018-06-17T18:48:27.022Z,23.90
2018-06-17T18:50:55.443Z,23.90
2018-06-17T18:53:25.408Z,23.90
2018-06-17T18:55:54.405Z,23.90
2018-06-17T18:58:23.169Z,23.90
2018-06-17T19:00:52.175Z,23.90
2018-06-17T19:03:21.206Z,23.80
2018-06-17T19:05:49.954Z,23.80
2018-06-17T19:08:23.678Z,23.70
2018-06-17T19:10:57.583Z,23.70
2018-06-17T19:13:31.478Z,23.70
2018-06-17T19:16:06.406Z,23.60
2018-06-17T19:18:34.995Z,23.60
2018-06-17T19:21:03.554Z,23.50
2018-06-17T19:23:32.343Z,23.60
2018-06-17T19:26:00.875Z,23.50
2018-06-17T19:28:29.386Z,23.50
2018-06-17T19:30:57.795Z,23.50
2018-06-17T19:33:26.190Z,23.50
2018-06-17T19:35:54.873Z,23.50
2018-06-17T19:38:23.438Z,23.50
2018-06-17T19:40:51.927Z,23.40
2018-06-17T19:43:20.311Z,23.40
2018-06-17T19:45:48.759Z,23.40
2018-06-17T19:48:17.327Z,23.30
2018-06-17T19:50:51.265Z,23.40
2018-06-17T19:53:25.134Z,23.30
2018-06-17T19:55:58.927Z,23.30
2018-06-17T19:58:32.842Z,23.30
2018-06-17T20:01:02.846Z,23.30
2018-06-17T20:03:31.583Z,23.20
2018-06-17T20:06:00.098Z,23.20
2018-06-17T20:08:28.762Z,23.20
2018-06-17T20:10:57.442Z,23.10
2018-06-17T20:13:26.350Z,23.10
2018-06-17T20:15:54.772Z,23.00
2018-06-17T20:18:23.270Z,23.00
2018-06-17T20:20:51.671Z,22.80
2018-06-17T20:23:20.370Z,22.80
2018-06-17T20:25:48.757Z,22.80
2018-06-17T20:28:17.190Z,22.80
2018-06-17T20:30:45.677Z,22.80
2018-06-17T20:33:19.494Z,22.80
2018-06-17T20:35:53.461Z,22.80
2018-06-17T20:38:27.226Z,22.80
2018-06-17T20:41:00.950Z,22.70
2018-06-17T20:43:34.798Z,22.70
2018-06-17T20:46:03.250Z,22.80
2018-06-17T20:48:31.677Z,22.70
2018-06-17T20:51:00.218Z,22.70
2018-06-17T20:53:28.814Z,22.70
2018-06-17T20:55:57.238Z,22.70
2018-06-17T20:58:25.672Z,22.70
2018-06-17T21:00:54.121Z,22.70
2018-06-17T21:05:50.737Z,22.70
2018-06-17T21:08:19.267Z,22.70
2018-06-17T21:10:47.850Z,22.70
2018-06-17T21:13:16.230Z,22.60
2018-06-17T21:15:44.841Z,22.60
2018-06-17T21:18:13.273Z,22.50
2018-06-17T21:20:47.070Z,22.50
2018-06-17T21:25:54.498Z,22.50
2018-06-17T21:28:22.994Z,22.50
2018-06-17T21:30:51.471Z,22.50
2018-06-17T21:33:19.836Z,22.50
2018-06-17T21:38:16.409Z,22.40
2018-06-17T21:40:44.829Z,22.40
2018-06-17T21:43:13.306Z,22.30
2018-06-17T21:45:41.952Z,22.30
2018-06-17T21:48:10.395Z,22.30
2018-06-17T21:50:38.882Z,22.30
2018-06-17T21:53:07.406Z,22.30
2018-06-17T21:55:35.909Z,22.30
2018-06-17T21:58:04.443Z,22.30
2018-06-17T22:00:32.932Z,22.30
2018-06-17T22:03:01.463Z,22.30
2018-06-17T22:05:29.843Z,22.20
2018-06-17T22:08:03.760Z,22.30
2018-06-17T22:10:37.543Z,22.20
2018-06-17T22:13:06.111Z,22.20
2018-06-17T22:15:39.911Z,22.20
2018-06-17T22:18:08.339Z,22.20
2018-06-17T22:20:36.882Z,22.20
2018-06-17T22:23:05.331Z,22.10
2018-06-17T22:25:33.802Z,22.10
2018-06-17T22:28:02.304Z,22.10
2018-06-17T22:30:30.779Z,22.10
2018-06-17T22:32:59.319Z,22.10
2018-06-17T22:35:27.785Z,22.00
2018-06-17T22:37:56.405Z,22.00
2018-06-17T22:40:24.833Z,22.00
2018-06-17T22:42:53.297Z,22.00
2018-06-17T22:45:21.746Z,22.00
2018-06-17T22:47:55.370Z,21.90
2018-06-17T22:50:24.098Z,21.90
2018-06-17T22:53:03.929Z,21.90
2018-06-17T22:55:32.365Z,21.90
2018-06-17T22:58:05.994Z,21.80
2018-06-17T23:00:39.922Z,21.80
2018-06-17T23:03:13.630Z,21.80
2018-06-17T23:05:47.412Z,21.70
2018-06-17T23:08:21.158Z,21.70
2018-06-17T23:10:49.549Z,21.70
2018-06-17T23:13:17.949Z,21.70
2018-06-17T23:15:46.310Z,21.70
2018-06-17T23:18:14.717Z,21.70
2018-06-17T23:20:43.135Z,21.70
2018-06-17T23:23:11.502Z,21.70
2018-06-17T23:25:39.830Z,21.70
2018-06-17T23:28:08.179Z,21.70
2018-06-17T23:30:36.664Z,21.70
2018-06-17T23:33:05.014Z,21.60
2018-06-17T23:35:33.422Z,21.60
2018-06-17T23:40:29.938Z,21.60
2018-06-17T23:42:58.324Z,21.50
2018-06-17T23:45:26.705Z,21.50
2018-06-17T23:48:00.634Z,21.50
2018-06-17T23:51:37.040Z,21.50
2018-06-17T23:54:10.673Z,21.40
2018-06-17T23:56:39.260Z,21.40
2018-06-17T23:59:07.810Z,21.40
